Time;durP1;ratioP1;P1;durP2;ratioP2;P2;SDS_P1;SDS_P2;PMS_P1;PMS_P2;Temp;Humidity;BMP_temperature;BMP_pressure;BME280_temperature;BME280_humidity;BME280_pressure;Samples;Min_cycle;Max_cycle;Signal;HPM_P1;HPM_P2
2022/08/07 00:01:08;;;;;;;;;;;10.70;99.90;;;;;;5078929;28;20391;-60
2022/08/07 00:03:34;;;;;;;;;;;10.70;99.90;;;;;;5077885;28;19931;-59
2022/08/07 00:05:59;;;;;;;;;;;10.70;99.90;;;;;;5066928;28;19959;-60
2022/08/07 00:08:25;;;;;;;;;;;10.60;99.90;;;;;;5079944;28;20358;-60
2022/08/07 00:10:50;;;;;;;;;;;10.60;99.90;;;;;;5078148;28;20291;-59
2022/08/07 00:13:17;;;;;;;;;;;10.60;99.90;;;;;;5080998;28;19967;-59
2022/08/07 00:15:42;;;;;;;;;;;10.60;99.90;;;;;;5079253;28;19936;-60
2022/08/07 00:18:08;;;;;;;;;;;10.70;99.90;;;;;;5077251;28;19924;-60
2022/08/07 00:20:37;;;;;;;;;;;10.70;99.90;;;;;;5075066;28;19920;-60
2022/08/07 00:23:05;;;;;;;;;;;10.60;99.90;;;;;;5079065;28;19963;-60
2022/08/07 00:25:30;;;;;;;;;;;10.60;99.90;;;;;;5081219;28;20412;-60
2022/08/07 00:27:56;;;;;;;;;;;10.60;99.90;;;;;;5079073;28;19966;-60
2022/08/07 00:30:22;;;;;;;;;;;10.50;99.90;;;;;;5078142;28;20271;-60
2022/08/07 00:32:48;;;;;;;;;;;10.50;99.90;;;;;;5077286;28;19920;-60
2022/08/07 00:35:14;;;;;;;;;;;10.40;99.90;;;;;;5082698;28;19920;-60
2022/08/07 00:37:40;;;;;;;;;;;10.40;99.90;;;;;;5078292;28;19986;-59
2022/08/07 00:40:05;;;;;;;;;;;10.50;99.90;;;;;;5079572;28;20023;-59
2022/08/07 00:42:32;;;;;;;;;;;10.30;99.90;;;;;;5078925;28;19925;-60
2022/08/07 00:44:57;;;;;;;;;;;10.50;99.90;;;;;;5079824;28;19920;-60
2022/08/07 00:47:23;;;;;;;;;;;10.40;99.90;;;;;;5078915;28;19924;-59
2022/08/07 00:49:48;;;;;;;;;;;10.40;99.90;;;;;;5078256;28;20344;-59
2022/08/07 00:52:14;;;;;;;;;;;10.30;99.90;;;;;;5078212;28;19932;-60
2022/08/07 00:54:40;;;;;;;;;;;10.40;99.90;;;;;;5082578;28;20447;-59
2022/08/07 00:57:06;;;;;;;;;;;10.30;99.90;;;;;;5082114;28;19928;-60
2022/08/07 00:59:31;;;;;;;;;;;10.30;99.90;;;;;;5086507;28;19927;-59
2022/08/07 01:01:57;;;;;;;;;;;10.30;99.90;;;;;;5084558;28;19957;-59
2022/08/07 01:04:23;;;;;;;;;;;10.30;99.90;;;;;;5081112;28;19927;-60
2022/08/07 01:06:48;;;;;;;;;;;10.30;99.90;;;;;;5084457;28;19931;-60
2022/08/07 01:09:15;;;;;;;;;;;10.20;99.90;;;;;;5079566;28;19928;-59
2022/08/07 01:11:40;;;;;;;;;;;10.30;99.90;;;;;;5082354;28;19924;-60
2022/08/07 01:14:06;;;;;;;;;;;10.20;99.90;;;;;;5118002;27;19980;-60
2022/08/07 01:16:32;;;;;;;;;;;10.20;99.90;;;;;;5086497;28;20372;-59
2022/08/07 01:18:58;;;;;;;;;;;10.20;99.90;;;;;;5085069;28;20030;-59
2022/08/07 01:21:24;;;;;;;;;;;10.20;99.90;;;;;;5079098;28;20359;-60
2022/08/07 01:23:50;;;;;;;;;;;10.30;99.90;;;;;;5082711;28;19920;-59
2022/08/07 01:26:17;;;;;;;;;;;10.20;99.90;;;;;;5084620;28;19924;-59
2022/08/07 01:28:43;;;;;;;;;;;10.10;99.90;;;;;;5082355;28;19971;-59
2022/08/07 01:31:09;;;;;;;;;;;10.10;99.90;;;;;;5082065;28;19924;-60
2022/08/07 01:33:35;;;;;;;;;;;10.10;99.90;;;;;;5076620;28;19928;-59
2022/08/07 01:36:01;;;;;;;;;;;10.10;99.90;;;;;;5078575;28;19938;-59
2022/08/07 01:38:27;;;;;;;;;;;10.10;99.90;;;;;;5081595;28;20454;-60
2022/08/07 01:40:53;;;;;;;;;;;10.00;99.90;;;;;;5081170;28;20006;-59
2022/08/07 01:43:19;;;;;;;;;;;10.10;99.90;;;;;;5083816;28;19924;-59
2022/08/07 01:45:45;;;;;;;;;;;10.10;99.90;;;;;;5083846;28;20082;-60
2022/08/07 01:48:10;;;;;;;;;;;10.10;99.90;;;;;;5079570;28;19944;-60
2022/08/07 01:50:37;;;;;;;;;;;10.00;99.90;;;;;;5110651;27;20033;-60
2022/08/07 01:53:04;;;;;;;;;;;10.00;99.90;;;;;;5082055;28;19939;-59
2022/08/07 01:55:35;;;;;;;;;;;10.00;99.90;;;;;;5084707;28;19924;-60
2022/08/07 01:58:01;;;;;;;;;;;10.00;99.90;;;;;;5079186;28;19940;-59
2022/08/07 02:00:28;;;;;;;;;;;10.00;99.90;;;;;;5082399;28;19996;-60
2022/08/07 02:02:54;;;;;;;;;;;10.00;99.90;;;;;;5082138;28;19926;-59
2022/08/07 02:05:38;;;;;;;;;;;10.10;99.90;;;;;;5076394;28;19924;-59
2022/08/07 02:08:10;;;;;;;;;;;10.20;99.90;;;;;;5081458;28;20014;-60
2022/08/07 02:10:36;;;;;;;;;;;10.20;99.90;;;;;;5083384;28;19955;-60
2022/08/07 02:13:03;;;;;;;;;;;10.20;99.90;;;;;;5083865;28;19928;-60
2022/08/07 02:15:29;;;;;;;;;;;10.10;99.90;;;;;;5085589;28;19928;-60
2022/08/07 02:17:56;;;;;;;;;;;10.10;99.90;;;;;;5079495;28;19989;-60
2022/08/07 02:20:22;;;;;;;;;;;10.00;99.90;;;;;;5082571;28;19931;-59
2022/08/07 02:22:48;;;;;;;;;;;10.00;99.90;;;;;;5081540;28;19924;-59
2022/08/07 02:25:15;;;;;;;;;;;10.00;99.90;;;;;;5082432;28;19931;-60
2022/08/07 02:27:41;;;;;;;;;;;10.00;99.90;;;;;;5079760;28;19965;-59
2022/08/07 02:30:07;;;;;;;;;;;10.00;99.90;;;;;;5077061;28;19924;-59
2022/08/07 02:32:35;;;;;;;;;;;10.00;99.90;;;;;;5084984;28;20527;-60
2022/08/07 02:35:03;;;;;;;;;;;10.00;99.90;;;;;;5082483;28;20011;-59
2022/08/07 02:37:30;;;;;;;;;;;9.90;99.90;;;;;;5079400;28;19927;-60
2022/08/07 02:39:56;;;;;;;;;;;10.00;99.90;;;;;;5083670;28;19924;-60
2022/08/07 02:42:22;;;;;;;;;;;9.90;99.90;;;;;;5082148;28;19927;-59
2022/08/07 02:44:49;;;;;;;;;;;9.90;99.90;;;;;;5082690;28;20368;-61
2022/08/07 02:47:15;;;;;;;;;;;9.90;99.90;;;;;;5084321;28;19924;-59
2022/08/07 02:49:41;;;;;;;;;;;9.90;99.90;;;;;;5077098;28;19977;-59
2022/08/07 02:52:08;;;;;;;;;;;9.80;99.90;;;;;;5080738;28;19920;-58
2022/08/07 02:54:36;;;;;;;;;;;9.80;99.90;;;;;;5078081;28;19967;-59
2022/08/07 02:57:02;;;;;;;;;;;9.80;99.90;;;;;;5080888;28;19929;-59
2022/08/07 02:59:30;;;;;;;;;;;9.80;99.90;;;;;;5081375;28;20380;-59
2022/08/07 03:01:56;;;;;;;;;;;9.80;99.90;;;;;;5082644;28;19926;-60
2022/08/07 03:04:22;;;;;;;;;;;9.80;99.90;;;;;;5081848;28;19974;-60
2022/08/07 03:06:48;;;;;;;;;;;9.80;99.90;;;;;;5079748;28;20379;-60
2022/08/07 03:09:14;;;;;;;;;;;9.70;99.90;;;;;;5083794;28;19924;-59
2022/08/07 03:11:40;;;;;;;;;;;9.80;99.90;;;;;;5077512;28;20480;-60
2022/08/07 03:14:05;;;;;;;;;;;9.80;99.90;;;;;;5098171;28;20355;-59
2022/08/07 03:16:32;;;;;;;;;;;9.80;99.90;;;;;;5081500;28;20020;-60
2022/08/07 03:18:58;;;;;;;;;;;9.90;99.90;;;;;;5083208;28;19920;-60
2022/08/07 03:21:24;;;;;;;;;;;9.90;99.90;;;;;;5081330;28;20262;-60
2022/08/07 03:23:52;;;;;;;;;;;9.90;99.90;;;;;;5082797;28;19924;-59
2022/08/07 03:26:19;;;;;;;;;;;9.90;99.90;;;;;;5081172;28;19982;-59
2022/08/07 03:28:45;;;;;;;;;;;9.80;99.90;;;;;;5080515;28;19931;-60
2022/08/07 03:31:17;;;;;;;;;;;9.80;99.90;;;;;;5083822;28;19935;-60
2022/08/07 03:33:43;;;;;;;;;;;9.80;99.90;;;;;;5081418;28;20406;-59
2022/08/07 03:36:09;;;;;;;;;;;9.70;99.90;;;;;;5110699;27;19935;-60
2022/08/07 03:38:36;;;;;;;;;;;9.80;99.90;;;;;;5111354;27;20335;-59
2022/08/07 03:41:01;;;;;;;;;;;9.70;99.90;;;;;;5077176;28;19942;-61
2022/08/07 03:43:27;;;;;;;;;;;9.60;99.90;;;;;;5080271;28;19928;-60
2022/08/07 03:45:52;;;;;;;;;;;9.60;99.90;;;;;;5082349;28;19924;-59
2022/08/07 03:48:18;;;;;;;;;;;9.60;99.90;;;;;;5082224;28;19928;-59
2022/08/07 03:50:44;;;;;;;;;;;9.60;99.90;;;;;;5076722;28;19982;-59
2022/08/07 03:53:09;;;;;;;;;;;9.60;99.90;;;;;;5080486;28;20020;-59
2022/08/07 03:55:35;;;;;;;;;;;9.50;99.90;;;;;;5079426;28;19925;-59
2022/08/07 03:58:01;;;;;;;;;;;9.40;99.90;;;;;;5083198;28;19932;-59
2022/08/07 04:00:27;;;;;;;;;;;9.40;99.90;;;;;;5078522;28;19928;-60
2022/08/07 04:02:53;;;;;;;;;;;9.40;99.90;;;;;;5079507;28;19923;-60
2022/08/07 04:05:20;;;;;;;;;;;9.40;99.90;;;;;;5076274;28;20288;-60
2022/08/07 04:07:46;;;;;;;;;;;9.30;99.90;;;;;;5076430;28;19920;-59
2022/08/07 04:10:11;;;;;;;;;;;9.30;99.90;;;;;;5083078;28;19920;-60
2022/08/07 04:12:37;;;;;;;;;;;9.30;99.90;;;;;;5078786;28;19927;-59
2022/08/07 04:15:03;;;;;;;;;;;9.40;99.90;;;;;;5078343;28;19932;-60
2022/08/07 04:17:29;;;;;;;;;;;9.40;99.90;;;;;;5078645;28;19993;-60
2022/08/07 04:19:54;;;;;;;;;;;9.40;99.90;;;;;;5072965;28;19932;-60
2022/08/07 04:22:23;;;;;;;;;;;9.30;99.90;;;;;;5082276;28;19970;-59
2022/08/07 04:24:49;;;;;;;;;;;9.40;99.90;;;;;;5077234;28;20531;-60
2022/08/07 04:27:14;;;;;;;;;;;9.40;99.90;;;;;;5081949;28;19927;-59
2022/08/07 04:29:42;;;;;;;;;;;9.40;99.90;;;;;;5082403;28;19920;-59
2022/08/07 04:32:07;;;;;;;;;;;9.40;99.90;;;;;;5113998;27;19926;-60
2022/08/07 04:34:33;;;;;;;;;;;9.40;99.90;;;;;;5082810;28;19928;-59
2022/08/07 04:36:59;;;;;;;;;;;9.40;99.90;;;;;;5078787;28;19924;-60
2022/08/07 04:39:25;;;;;;;;;;;9.40;99.90;;;;;;5084040;28;20275;-60
2022/08/07 04:41:50;;;;;;;;;;;9.40;99.90;;;;;;5084121;28;19969;-59
2022/08/07 04:44:16;;;;;;;;;;;9.50;99.90;;;;;;5084628;28;19928;-61
2022/08/07 04:46:50;;;;;;;;;;;9.60;99.90;;;;;;5082744;28;20384;-59
2022/08/07 04:49:18;;;;;;;;;;;9.60;99.90;;;;;;5081555;28;20338;-59
2022/08/07 04:51:49;;;;;;;;;;;9.70;99.90;;;;;;5085207;28;19921;-60
2022/08/07 04:54:26;;;;;;;;;;;9.80;99.90;;;;;;5079165;28;19927;-60
2022/08/07 04:56:57;;;;;;;;;;;9.80;99.90;;;;;;5088109;28;20036;-60
2022/08/07 04:59:35;;;;;;;;;;;9.80;99.90;;;;;;5085352;28;19925;-59
2022/08/07 05:02:04;;;;;;;;;;;9.90;99.90;;;;;;5082074;28;19924;-60
2022/08/07 05:04:34;;;;;;;;;;;9.90;99.90;;;;;;5075505;28;19959;-60
2022/08/07 05:07:04;;;;;;;;;;;9.90;99.90;;;;;;5080153;28;20298;-61
2022/08/07 05:09:41;;;;;;;;;;;10.00;99.90;;;;;;5079122;28;19920;-61
2022/08/07 05:12:08;;;;;;;;;;;10.00;99.90;;;;;;5082047;28;20104;-59
2022/08/07 05:14:39;;;;;;;;;;;10.10;99.90;;;;;;5082099;28;19928;-61
2022/08/07 05:17:07;;;;;;;;;;;10.20;99.90;;;;;;5077919;28;19958;-60
2022/08/07 05:19:40;;;;;;;;;;;10.30;99.90;;;;;;5079433;28;20019;-60
2022/08/07 05:22:07;;;;;;;;;;;10.50;99.90;;;;;;5082559;28;19936;-61
2022/08/07 05:24:33;;;;;;;;;;;10.60;99.90;;;;;;5085277;28;19927;-59
2022/08/07 05:27:00;;;;;;;;;;;10.70;99.90;;;;;;5082436;28;19923;-60
2022/08/07 05:29:26;;;;;;;;;;;10.90;99.90;;;;;;5083870;28;20379;-60
2022/08/07 05:31:52;;;;;;;;;;;11.00;99.90;;;;;;5087537;28;20191;-60
2022/08/07 05:34:18;;;;;;;;;;;11.20;99.90;;;;;;5081276;28;20284;-61
2022/08/07 05:36:48;;;;;;;;;;;11.30;99.90;;;;;;5110359;27;20021;-60
2022/08/07 05:39:16;;;;;;;;;;;11.40;99.90;;;;;;5084804;28;19973;-61
2022/08/07 05:41:42;;;;;;;;;;;11.60;99.90;;;;;;5085896;28;19966;-61
2022/08/07 05:44:08;;;;;;;;;;;11.70;99.90;;;;;;5083936;28;19967;-60
2022/08/07 05:46:34;;;;;;;;;;;11.80;99.90;;;;;;5080699;28;19928;-60
2022/08/07 05:49:00;;;;;;;;;;;12.00;99.90;;;;;;5084223;28;20325;-60
2022/08/07 05:51:25;;;;;;;;;;;12.10;99.90;;;;;;5081099;28;19928;-60
2022/08/07 05:53:51;;;;;;;;;;;12.30;99.90;;;;;;5097017;28;20836;-61
2022/08/07 05:56:17;;;;;;;;;;;12.40;99.90;;;;;;5080679;28;19974;-59
2022/08/07 05:58:45;;;;;;;;;;;12.60;99.90;;;;;;5110991;27;19920;-60
2022/08/07 06:01:12;;;;;;;;;;;12.80;99.90;;;;;;5085913;28;20308;-60
2022/08/07 06:03:38;;;;;;;;;;;13.00;99.90;;;;;;5080701;28;20442;-60
2022/08/07 06:06:05;;;;;;;;;;;13.20;99.90;;;;;;5079005;28;19928;-61
2022/08/07 06:08:30;;;;;;;;;;;13.50;99.90;;;;;;5077539;28;20257;-60
2022/08/07 06:10:56;;;;;;;;;;;13.80;99.90;;;;;;5086183;28;19923;-61
2022/08/07 06:13:22;;;;;;;;;;;14.10;99.90;;;;;;5081297;28;20091;-60
2022/08/07 06:15:48;;;;;;;;;;;14.40;99.90;;;;;;5080994;28;19920;-60
2022/08/07 06:18:14;;;;;;;;;;;14.70;99.90;;;;;;5081259;28;19955;-61
2022/08/07 06:20:40;;;;;;;;;;;15.00;99.90;;;;;;5078751;28;19970;-60
2022/08/07 06:23:07;;;;;;;;;;;15.20;99.90;;;;;;5078532;28;20067;-61
2022/08/07 06:25:32;;;;;;;;;;;15.50;99.90;;;;;;5109327;27;19930;-61
2022/08/07 06:28:02;;;;;;;;;;;15.70;99.90;;;;;;5076305;28;19925;-61
2022/08/07 06:30:28;;;;;;;;;;;16.00;99.90;;;;;;5112945;27;19923;-61
2022/08/07 06:32:53;;;;;;;;;;;16.20;98.60;;;;;;5085409;28;19985;-60
2022/08/07 06:35:18;;;;;;;;;;;16.40;93.70;;;;;;5077709;28;19977;-61
2022/08/07 06:37:44;;;;;;;;;;;16.60;93.60;;;;;;5080192;28;19935;-61
2022/08/07 06:40:10;;;;;;;;;;;16.80;94.50;;;;;;5082944;28;19939;-61
2022/08/07 06:42:38;;;;;;;;;;;17.10;92.60;;;;;;5080671;28;19949;-61
2022/08/07 06:45:06;;;;;;;;;;;17.30;90.90;;;;;;5081908;28;20366;-62
2022/08/07 06:47:31;;;;;;;;;;;17.50;90.60;;;;;;5087578;28;19920;-61
2022/08/07 06:49:57;;;;;;;;;;;17.70;91.00;;;;;;5081863;28;19924;-61
2022/08/07 06:52:24;;;;;;;;;;;17.90;90.20;;;;;;5077749;28;19928;-61
2022/08/07 06:54:50;;;;;;;;;;;18.10;89.00;;;;;;5081748;28;20399;-62
2022/08/07 06:57:16;;;;;;;;;;;18.30;89.10;;;;;;5079067;28;19930;-61
2022/08/07 06:59:42;;;;;;;;;;;18.40;87.90;;;;;;5074415;28;19931;-61
2022/08/07 07:02:14;;;;;;;;;;;18.60;86.20;;;;;;5085547;28;20344;-62
2022/08/07 07:04:41;;;;;;;;;;;18.70;86.00;;;;;;5078065;28;20347;-61
2022/08/07 07:07:07;;;;;;;;;;;18.90;82.00;;;;;;5081375;28;19951;-62
2022/08/07 07:09:32;;;;;;;;;;;19.10;80.40;;;;;;5076490;28;19925;-61
2022/08/07 07:12:07;;;;;;;;;;;18.90;80.50;;;;;;5078195;28;19935;-61
2022/08/07 07:14:44;;;;;;;;;;;19.20;78.40;;;;;;5079450;28;19981;-60
2022/08/07 07:17:14;;;;;;;;;;;19.30;79.60;;;;;;5077076;28;20020;-62
2022/08/07 07:19:44;;;;;;;;;;;19.70;79.10;;;;;;5079551;28;20384;-62
2022/08/07 07:22:10;;;;;;;;;;;19.90;74.90;;;;;;5078106;28;20399;-62
2022/08/07 07:24:37;;;;;;;;;;;20.10;75.50;;;;;;5077404;28;20032;-62
2022/08/07 07:27:03;;;;;;;;;;;20.20;72.30;;;;;;5079781;28;19929;-61
2022/08/07 07:29:31;;;;;;;;;;;20.40;68.70;;;;;;5079357;28;20439;-62
2022/08/07 07:31:59;;;;;;;;;;;20.60;68.00;;;;;;5081121;28;19924;-62
2022/08/07 07:34:27;;;;;;;;;;;20.70;71.70;;;;;;5079332;28;19942;-62
2022/08/07 07:36:53;;;;;;;;;;;20.70;65.30;;;;;;5077422;28;19942;-61
2022/08/07 07:39:19;;;;;;;;;;;20.80;69.10;;;;;;5082051;28;20035;-61
2022/08/07 07:41:46;;;;;;;;;;;21.10;68.60;;;;;;5083057;28;19920;-61
2022/08/07 07:44:13;;;;;;;;;;;21.30;65.00;;;;;;5080654;28;19935;-62
2022/08/07 07:46:40;;;;;;;;;;;21.50;68.50;;;;;;5076016;28;19928;-62
2022/08/07 07:49:07;;;;;;;;;;;21.70;68.90;;;;;;5071099;28;19930;-62
2022/08/07 07:51:33;;;;;;;;;;;22.00;68.20;;;;;;5071571;28;19928;-62
2022/08/07 07:53:59;;;;;;;;;;;22.10;64.40;;;;;;5068017;28;20283;-61
2022/08/07 07:56:27;;;;;;;;;;;22.20;63.90;;;;;;5070917;28;19933;-61
2022/08/07 07:58:53;;;;;;;;;;;22.40;64.20;;;;;;5073917;28;20519;-62
2022/08/07 08:01:20;;;;;;;;;;;22.30;58.40;;;;;;5073603;28;20375;-63
2022/08/07 08:03:47;;;;;;;;;;;21.90;57.20;;;;;;5067597;28;20006;-63
2022/08/07 08:06:13;;;;;;;;;;;22.00;59.00;;;;;;5066967;28;19946;-62
2022/08/07 08:08:40;;;;;;;;;;;22.50;63.00;;;;;;5084640;28;19928;-63
2022/08/07 08:11:10;;;;;;;;;;;23.00;63.10;;;;;;5068997;28;20434;-63
2022/08/07 08:13:39;;;;;;;;;;;23.00;61.00;;;;;;5061059;28;20276;-63
2022/08/07 08:16:06;;;;;;;;;;;23.20;60.10;;;;;;5072461;28;20343;-62
2022/08/07 08:18:33;;;;;;;;;;;23.50;60.30;;;;;;5067936;28;19972;-63
2022/08/07 08:21:00;;;;;;;;;;;23.60;60.10;;;;;;5070416;28;19924;-62
2022/08/07 08:28:58;;;;;;;;;;;24.00;55.00;;;;;;5071625;28;20010;-64
2022/08/07 08:31:25;;;;;;;;;;;24.00;51.40;;;;;;5068753;28;20348;-63
2022/08/07 08:33:53;;;;;;;;;;;24.20;51.20;;;;;;5066525;28;20008;-63
2022/08/07 08:36:19;;;;;;;;;;;24.30;54.60;;;;;;5068951;28;20041;-62
2022/08/07 08:38:47;;;;;;;;;;;24.00;53.60;;;;;;5069493;28;19920;-63
2022/08/07 08:41:23;;;;;;;;;;;24.20;56.00;;;;;;5070912;28;19924;-63
2022/08/07 08:43:49;;;;;;;;;;;24.80;53.70;;;;;;5068085;28;19921;-63
2022/08/07 08:46:23;;;;;;;;;;;25.40;54.10;;;;;;5072422;28;20310;-62
2022/08/07 08:48:48;;;;;;;;;;;25.20;52.80;;;;;;5068576;28;19969;-63
2022/08/07 08:51:32;;;;;;;;;;;25.00;52.30;;;;;;5070884;28;20395;-63
2022/08/07 08:54:03;;;;;;;;;;;25.50;52.30;;;;;;5069208;28;19928;-63
2022/08/07 08:56:36;;;;;;;;;;;26.00;47.10;;;;;;5071820;28;19934;-63
2022/08/07 08:59:18;;;;;;;;;;;26.60;49.30;;;;;;5069428;28;19928;-63
2022/08/07 09:01:50;;;;;;;;;;;26.60;48.60;;;;;;5070820;28;20291;-63
2022/08/07 09:04:21;;;;;;;;;;;27.30;47.00;;;;;;5071985;28;19919;-62
2022/08/07 09:07:07;;;;;;;;;;;27.40;44.70;;;;;;5070100;28;19920;-63
2022/08/07 09:09:43;;;;;;;;;;;27.40;45.90;;;;;;5081351;28;19928;-63
2022/08/07 09:12:21;;;;;;;;;;;27.70;46.10;;;;;;5070620;28;19921;-63
2022/08/07 09:14:49;;;;;;;;;;;26.80;45.60;;;;;;5068665;28;19927;-63
2022/08/07 09:17:35;;;;;;;;;;;26.90;45.30;;;;;;5073816;28;20593;-64
2022/08/07 09:20:05;;;;;;;;;;;27.00;47.10;;;;;;5074885;28;20291;-63
2022/08/07 09:22:30;;;;;;;;;;;26.60;46.60;;;;;;5107843;27;19923;-64
2022/08/07 09:25:05;;;;;;;;;;;26.70;47.10;;;;;;5073023;28;19978;-63
2022/08/07 09:27:31;;;;;;;;;;;26.80;45.80;;;;;;5069958;28;20009;-63
2022/08/07 09:30:01;;;;;;;;;;;26.90;47.00;;;;;;5072799;28;19951;-64
2022/08/07 09:32:53;;;;;;;;;;;27.40;46.30;;;;;;5071762;28;20366;-63
2022/08/07 09:35:19;;;;;;;;;;;27.00;44.60;;;;;;5062537;28;20316;-65
2022/08/07 09:37:50;;;;;;;;;;;27.20;46.10;;;;;;5093864;28;20006;-63
2022/08/07 09:40:21;;;;;;;;;;;26.60;46.20;;;;;;5078030;28;19920;-63
2022/08/07 09:43:08;;;;;;;;;;;25.70;46.00;;;;;;5076428;28;20257;-64
2022/08/07 09:45:46;;;;;;;;;;;25.30;47.60;;;;;;5067475;28;19927;-63
2022/08/07 09:48:30;;;;;;;;;;;24.80;48.30;;;;;;5073865;28;19968;-62
2022/08/07 09:51:15;;;;;;;;;;;24.60;49.70;;;;;;5070621;28;19924;-63
2022/08/07 09:53:43;;;;;;;;;;;24.50;50.40;;;;;;5074361;28;19927;-63
2022/08/07 09:56:27;;;;;;;;;;;24.70;49.60;;;;;;5071590;28;20051;-64
2022/08/07 09:58:58;;;;;;;;;;;25.00;49.00;;;;;;5069996;28;19932;-64
2022/08/07 10:01:49;;;;;;;;;;;25.00;48.70;;;;;;5073038;28;20413;-63
2022/08/07 10:04:33;;;;;;;;;;;24.70;49.30;;;;;;5073992;28;19920;-64
2022/08/07 10:07:18;;;;;;;;;;;24.50;47.50;;;;;;5070520;28;20620;-63
2022/08/07 10:10:02;;;;;;;;;;;24.70;48.40;;;;;;5073441;28;19982;-62
2022/08/07 10:12:48;;;;;;;;;;;25.50;43.90;;;;;;5074670;28;19924;-63
2022/08/07 10:15:13;;;;;;;;;;;25.60;44.80;;;;;;5059133;28;19935;-63
2022/08/07 10:17:48;;;;;;;;;;;26.00;43.80;;;;;;5076713;28;20284;-64
2022/08/07 10:20:26;;;;;;;;;;;27.10;42.40;;;;;;5071329;28;20641;-64
2022/08/07 10:23:10;;;;;;;;;;;27.90;42.00;;;;;;5073727;28;20413;-63
2022/08/07 10:25:56;;;;;;;;;;;28.10;41.60;;;;;;5106165;27;19920;-63
2022/08/07 10:28:36;;;;;;;;;;;29.10;38.90;;;;;;5072788;28;20018;-63
2022/08/07 10:31:20;;;;;;;;;;;29.20;40.00;;;;;;5070315;28;19966;-63
2022/08/07 10:34:05;;;;;;;;;;;29.60;38.30;;;;;;5071251;28;19931;-63
2022/08/07 10:36:49;;;;;;;;;;;28.00;35.50;;;;;;5070471;28;19928;-62
2022/08/07 10:39:23;;;;;;;;;;;27.20;38.70;;;;;;5074706;28;20023;-64
2022/08/07 10:42:12;;;;;;;;;;;27.90;39.60;;;;;;5074977;28;19956;-62
2022/08/07 10:44:51;;;;;;;;;;;27.80;38.00;;;;;;5066997;28;19943;-63
2022/08/07 10:47:24;;;;;;;;;;;27.90;38.80;;;;;;5103069;27;19930;-62
2022/08/07 10:50:01;;;;;;;;;;;27.10;38.50;;;;;;5070736;28;20398;-63
2022/08/07 10:52:31;;;;;;;;;;;26.90;40.00;;;;;;5071874;28;20267;-63
2022/08/07 10:54:58;;;;;;;;;;;26.20;41.80;;;;;;5070728;28;19997;-62
2022/08/07 10:57:29;;;;;;;;;;;25.70;42.00;;;;;;5071743;28;20342;-66
2022/08/07 11:00:08;;;;;;;;;;;25.50;43.90;;;;;;5075419;28;19982;-63
2022/08/07 11:02:38;;;;;;;;;;;25.10;44.10;;;;;;5105256;27;19955;-63
2022/08/07 11:05:10;;;;;;;;;;;25.10;45.80;;;;;;5066977;28;19935;-62
2022/08/07 11:07:51;;;;;;;;;;;25.10;45.40;;;;;;5073093;28;20240;-63
2022/08/07 11:10:22;;;;;;;;;;;25.00;45.30;;;;;;5070453;28;19932;-62
2022/08/07 11:12:57;;;;;;;;;;;24.60;45.40;;;;;;5070686;28;19939;-62
2022/08/07 11:15:24;;;;;;;;;;;24.50;44.10;;;;;;5072229;28;19924;-62
2022/08/07 11:17:57;;;;;;;;;;;24.30;45.10;;;;;;5072436;28;19924;-63
2022/08/07 11:20:22;;;;;;;;;;;24.50;42.40;;;;;;5072805;28;19924;-62
2022/08/07 11:22:58;;;;;;;;;;;24.50;44.60;;;;;;5074272;28;20408;-63
2022/08/07 11:25:32;;;;;;;;;;;24.30;44.80;;;;;;5105492;28;19921;-62
2022/08/07 11:28:15;;;;;;;;;;;24.40;45.80;;;;;;5069815;28;19924;-63
2022/08/07 11:30:48;;;;;;;;;;;24.30;43.30;;;;;;5070066;28;20410;-63
2022/08/07 11:33:35;;;;;;;;;;;24.30;43.50;;;;;;5070068;28;20371;-64
2022/08/07 11:36:10;;;;;;;;;;;24.10;43.30;;;;;;5065935;28;19963;-63
2022/08/07 11:38:48;;;;;;;;;;;24.00;44.30;;;;;;5068880;28;19928;-62
2022/08/07 11:41:15;;;;;;;;;;;24.00;45.40;;;;;;5070140;28;20376;-63
2022/08/07 11:44:00;;;;;;;;;;;24.40;44.20;;;;;;5071950;28;19943;-63
2022/08/07 11:46:42;;;;;;;;;;;24.30;44.40;;;;;;5069937;28;19920;-63
2022/08/07 11:49:28;;;;;;;;;;;24.30;43.20;;;;;;5071984;28;19931;-62
2022/08/07 11:52:01;;;;;;;;;;;24.20;42.70;;;;;;5070845;28;20320;-62
2022/08/07 11:54:55;;;;;;;;;;;24.20;44.20;;;;;;5070213;28;20001;-64
2022/08/07 11:57:46;;;;;;;;;;;24.50;45.30;;;;;;5046303;28;21472;-63
2022/08/07 12:00:19;;;;;;;;;;;24.70;45.90;;;;;;5060978;28;19921;-63
2022/08/07 12:02:56;;;;;;;;;;;24.70;44.70;;;;;;5073071;28;19959;-64
2022/08/07 12:05:27;;;;;;;;;;;25.00;44.00;;;;;;5071215;28;20097;-62
2022/08/07 12:08:00;;;;;;;;;;;25.00;43.00;;;;;;5069594;28;19925;-63
2022/08/07 12:10:26;;;;;;;;;;;25.30;44.00;;;;;;5079823;28;19920;-63
2022/08/07 12:13:11;;;;;;;;;;;25.60;44.90;;;;;;5090604;28;19920;-61
2022/08/07 12:15:40;;;;;;;;;;;25.80;43.60;;;;;;5069199;28;19977;-62
2022/08/07 12:18:23;;;;;;;;;;;25.80;43.70;;;;;;5069931;28;19932;-63
2022/08/07 12:21:07;;;;;;;;;;;25.90;43.50;;;;;;5069724;28;19921;-63
2022/08/07 12:23:37;;;;;;;;;;;25.20;42.70;;;;;;5071996;28;19932;-63
2022/08/07 12:26:05;;;;;;;;;;;25.30;43.50;;;;;;5070995;28;19929;-63
2022/08/07 12:28:46;;;;;;;;;;;25.60;44.00;;;;;;5070612;28;19930;-63
2022/08/07 12:31:16;;;;;;;;;;;25.70;41.90;;;;;;5069991;28;20470;-62
2022/08/07 12:33:43;;;;;;;;;;;25.80;41.50;;;;;;5069765;28;20007;-62
2022/08/07 12:36:10;;;;;;;;;;;26.00;41.30;;;;;;5068413;28;19920;-63
2022/08/07 12:38:37;;;;;;;;;;;26.10;41.60;;;;;;5070960;28;20391;-62
2022/08/07 12:41:03;;;;;;;;;;;26.50;42.10;;;;;;5069941;28;20056;-63
2022/08/07 12:43:31;;;;;;;;;;;26.80;41.80;;;;;;5068534;28;20451;-62
2022/08/07 12:46:11;;;;;;;;;;;26.90;40.90;;;;;;5070593;28;19959;-62
2022/08/07 12:48:54;;;;;;;;;;;27.20;39.30;;;;;;5069802;28;20354;-62
2022/08/07 12:51:36;;;;;;;;;;;27.50;40.90;;;;;;5074647;28;20376;-63
2022/08/07 12:54:25;;;;;;;;;;;30.00;39.80;;;;;;5073495;28;19921;-63
2022/08/07 12:56:52;;;;;;;;;;;32.30;38.60;;;;;;5069862;28;19941;-63
2022/08/07 12:59:21;;;;;;;;;;;34.20;35.80;;;;;;5074867;28;20010;-63
2022/08/07 13:02:01;;;;;;;;;;;35.70;33.90;;;;;;5075252;28;19921;-64
2022/08/07 13:04:39;;;;;;;;;;;36.70;32.70;;;;;;5073066;28;19927;-64
2022/08/07 13:07:16;;;;;;;;;;;37.30;32.00;;;;;;5072277;28;19936;-65
2022/08/07 13:09:46;;;;;;;;;;;37.00;31.40;;;;;;5074752;28;20477;-65
2022/08/07 13:12:30;;;;;;;;;;;36.40;30.40;;;;;;5074883;28;19924;-64
2022/08/07 13:15:16;;;;;;;;;;;37.50;29.70;;;;;;5073522;28;19955;-65
2022/08/07 13:17:45;;;;;;;;;;;38.40;29.80;;;;;;5073533;28;20319;-65
2022/08/07 13:20:17;;;;;;;;;;;39.10;29.30;;;;;;5072175;28;20051;-63
2022/08/07 13:22:46;;;;;;;;;;;39.80;28.90;;;;;;5075459;28;19970;-63
2022/08/07 13:25:15;;;;;;;;;;;40.00;27.70;;;;;;5073820;28;19920;-64
2022/08/07 13:27:47;;;;;;;;;;;40.10;27.70;;;;;;5076244;28;19935;-63
2022/08/07 13:30:13;;;;;;;;;;;39.90;25.60;;;;;;5072811;28;19931;-64
2022/08/07 13:32:52;;;;;;;;;;;40.20;28.00;;;;;;5074578;28;20295;-65
2022/08/07 13:35:35;;;;;;;;;;;40.20;26.80;;;;;;5069525;28;19925;-64
2022/08/07 13:38:02;;;;;;;;;;;40.30;26.40;;;;;;5070496;28;19932;-63
2022/08/07 13:40:30;;;;;;;;;;;37.20;25.50;;;;;;5077170;28;19920;-62
2022/08/07 13:42:57;;;;;;;;;;;37.90;27.60;;;;;;5072025;28;19921;-63
2022/08/07 13:45:24;;;;;;;;;;;38.30;28.30;;;;;;5073192;28;19935;-63
2022/08/07 13:47:51;;;;;;;;;;;38.80;28.50;;;;;;5072972;28;19938;-64
2022/08/07 13:50:18;;;;;;;;;;;39.20;28.30;;;;;;5074505;28;19975;-65
2022/08/07 13:52:43;;;;;;;;;;;39.90;28.10;;;;;;5071331;28;19953;-63
2022/08/07 13:55:13;;;;;;;;;;;37.70;25.20;;;;;;5072644;28;19943;-63
2022/08/07 13:57:41;;;;;;;;;;;35.70;26.90;;;;;;5071329;28;19964;-63
2022/08/07 14:00:08;;;;;;;;;;;36.10;27.80;;;;;;5072651;28;21238;-63
2022/08/07 14:02:35;;;;;;;;;;;35.60;28.60;;;;;;5078719;28;19921;-64
2022/08/07 14:05:03;;;;;;;;;;;36.80;28.20;;;;;;5074239;28;19920;-63
2022/08/07 14:07:30;;;;;;;;;;;37.60;28.40;;;;;;5071296;28;19920;-63
2022/08/07 14:09:59;;;;;;;;;;;37.90;27.50;;;;;;5074816;28;19921;-63
2022/08/07 14:12:29;;;;;;;;;;;38.70;27.50;;;;;;5074847;28;19921;-63
2022/08/07 14:15:00;;;;;;;;;;;38.90;27.40;;;;;;5075350;28;19920;-63
2022/08/07 14:17:28;;;;;;;;;;;39.40;26.60;;;;;;5074172;28;20288;-63
2022/08/07 14:20:05;;;;;;;;;;;39.90;27.40;;;;;;5069913;28;20010;-63
2022/08/07 14:22:31;;;;;;;;;;;37.80;25.60;;;;;;5074389;28;19928;-63
2022/08/07 14:25:05;;;;;;;;;;;38.60;27.20;;;;;;5071781;28;20404;-63
2022/08/07 14:27:42;;;;;;;;;;;38.90;27.30;;;;;;5073881;28;20394;-65
2022/08/07 14:30:08;;;;;;;;;;;39.20;27.90;;;;;;5076619;28;19928;-64
2022/08/07 14:32:41;;;;;;;;;;;39.50;27.70;;;;;;5074825;28;19927;-65
2022/08/07 14:35:09;;;;;;;;;;;39.60;27.90;;;;;;5070955;28;22412;-63
2022/08/07 14:37:35;;;;;;;;;;;39.70;27.20;;;;;;5071659;28;19963;-64
2022/08/07 14:40:01;;;;;;;;;;;39.90;27.40;;;;;;5073478;28;19928;-64